createdAt,value
2023-02-15T00:00:00.894Z,88.32
2023-02-15T00:02:27.784Z,97.32
2023-02-15T00:04:56.652Z,89.28
2023-02-15T00:07:23.427Z,86.75
2023-02-15T00:09:50.545Z,76.47
2023-02-15T00:12:17.810Z,89.40
2023-02-15T00:14:44.897Z,88.50
2023-02-15T00:17:11.705Z,72.60
2023-02-15T00:19:38.579Z,83.70
2023-02-15T00:22:05.554Z,85.03
2023-02-15T00:24:32.398Z,85.97
2023-02-15T00:26:59.356Z,104.90
2023-02-15T00:29:26.408Z,128.95
2023-02-15T00:31:53.430Z,145.93
2023-02-15T00:34:23.832Z,115.57
2023-02-15T00:36:51.041Z,107.28
2023-02-15T00:39:18.852Z,99.47
2023-02-15T00:41:47.124Z,89.85
2023-02-15T00:44:14.527Z,102.03
2023-02-15T00:46:41.361Z,107.57
2023-02-15T00:49:08.269Z,116.22
2023-02-15T00:51:35.254Z,111.38
2023-02-15T00:54:02.297Z,101.38
2023-02-15T00:56:32.128Z,104.78
2023-02-15T00:58:59.101Z,94.25
2023-02-15T01:01:26.821Z,91.68
2023-02-15T01:03:53.894Z,96.82
2023-02-15T01:06:20.801Z,101.10
2023-02-15T01:08:48.238Z,156.80
2023-02-15T01:11:23.106Z,189.68
2023-02-15T01:13:56.221Z,243.68
2023-02-15T01:16:24.219Z,276.65
2023-02-15T01:18:51.618Z,265.08
2023-02-15T01:21:21.766Z,212.35
2023-02-15T01:23:48.748Z,173.40
2023-02-15T01:26:16.413Z,129.02
2023-02-15T01:28:43.179Z,123.95
2023-02-15T01:31:20.827Z,105.88
2023-02-15T01:33:48.512Z,101.90
2023-02-15T01:36:15.921Z,82.13
2023-02-15T01:38:42.943Z,92.45
2023-02-15T01:41:24.351Z,89.57
2023-02-15T01:43:54.593Z,82.82
2023-02-15T01:46:27.279Z,79.30
2023-02-15T01:49:01.307Z,78.53
2023-02-15T01:51:31.732Z,77.13
2023-02-15T01:54:25.477Z,75.35
2023-02-15T01:56:53.775Z,76.05
2023-02-15T01:59:23.163Z,76.43
2023-02-15T02:01:53.253Z,70.72
2023-02-15T02:04:47.298Z,76.57
2023-02-15T02:07:17.182Z,79.18
2023-02-15T02:09:45.469Z,69.40
2023-02-15T02:12:13.187Z,82.70
2023-02-15T02:14:41.327Z,72.03
2023-02-15T02:17:08.103Z,78.75
2023-02-15T02:19:59.597Z,79.47
2023-02-15T02:22:54.268Z,74.00
2023-02-15T02:25:33.100Z,79.33
2023-02-15T02:28:18.460Z,87.25
2023-02-15T02:31:06.986Z,77.75
2023-02-15T02:33:50.248Z,82.70
2023-02-15T02:36:56.473Z,92.40
2023-02-15T02:39:28.434Z,77.10
2023-02-15T02:42:12.905Z,89.32
2023-02-15T02:45:05.931Z,94.00
2023-02-15T02:47:53.839Z,90.53
2023-02-15T02:50:27.400Z,82.55
2023-02-15T02:52:56.357Z,78.50
2023-02-15T02:55:25.993Z,99.05
2023-02-15T02:58:00.847Z,83.95
2023-02-15T03:03:05.857Z,93.32
2023-02-15T03:05:35.315Z,96.13
2023-02-15T03:08:06.895Z,97.80
2023-02-15T03:10:35.911Z,92.30
2023-02-15T03:13:03.262Z,97.05
2023-02-15T03:15:57.219Z,112.03
2023-02-15T03:18:29.043Z,97.13
2023-02-15T03:20:57.070Z,87.07
2023-02-15T03:23:26.700Z,91.18
2023-02-15T03:26:04.092Z,91.43
2023-02-15T03:28:52.686Z,86.47
2023-02-15T03:31:22.336Z,105.35
2023-02-15T03:34:02.363Z,96.72
2023-02-15T03:36:42.878Z,86.20
2023-02-15T03:39:30.401Z,95.18
2023-02-15T03:42:09.813Z,101.15
2023-02-15T03:44:57.954Z,88.68
2023-02-15T03:47:35.575Z,81.38
2023-02-15T03:50:28.670Z,86.47
2023-02-15T03:52:57.391Z,75.45
2023-02-15T03:55:24.566Z,85.78
2023-02-15T03:58:10.393Z,86.93
2023-02-15T04:01:00.589Z,82.00
2023-02-15T04:03:39.513Z,86.03
2023-02-15T04:06:06.538Z,92.25
2023-02-15T04:08:52.094Z,102.97
2023-02-15T04:11:18.910Z,96.25
2023-02-15T04:13:45.729Z,96.85
2023-02-15T04:16:12.510Z,94.95
2023-02-15T04:19:01.287Z,97.80
2023-02-15T04:21:48.918Z,105.70
2023-02-15T04:24:35.043Z,98.13
2023-02-15T04:27:02.275Z,104.70
2023-02-15T04:29:29.506Z,90.82
2023-02-15T04:31:58.288Z,101.10
2023-02-15T04:34:25.203Z,95.82
2023-02-15T04:36:52.189Z,94.18
2023-02-15T04:39:19.854Z,100.15
2023-02-15T04:41:46.918Z,91.22
2023-02-15T04:44:13.801Z,89.68
2023-02-15T04:46:40.624Z,99.38
2023-02-15T04:49:07.523Z,99.88
2023-02-15T04:51:34.329Z,95.55
2023-02-15T04:54:01.273Z,102.20
2023-02-15T04:56:28.064Z,91.65
2023-02-15T04:58:54.800Z,90.55
2023-02-15T05:01:21.779Z,95.32
2023-02-15T05:03:48.628Z,104.47
2023-02-15T05:06:15.418Z,101.53
2023-02-15T05:08:42.240Z,86.82
2023-02-15T05:11:09.021Z,95.07
2023-02-15T05:13:35.763Z,90.18
2023-02-15T05:16:03.018Z,103.60
2023-02-15T05:18:29.922Z,94.07
2023-02-15T05:20:57.004Z,94.40
2023-02-15T05:23:23.860Z,84.40
2023-02-15T05:26:10.769Z,105.20
2023-02-15T05:28:39.043Z,88.05
2023-02-15T05:31:15.415Z,95.75
2023-02-15T05:33:42.718Z,101.82
2023-02-15T05:36:10.411Z,91.65
2023-02-15T05:38:40.306Z,101.82
2023-02-15T05:41:08.319Z,103.93
2023-02-15T05:43:39.405Z,105.70
2023-02-15T05:46:06.617Z,93.40
2023-02-15T05:48:34.034Z,97.55
2023-02-15T05:51:05.808Z,92.97
2023-02-15T05:53:34.489Z,109.72
2023-02-15T05:56:03.361Z,94.00
2023-02-15T05:58:34.798Z,108.70
2023-02-15T06:01:15.756Z,106.95
2023-02-15T06:03:43.267Z,91.90
2023-02-15T06:06:10.594Z,97.70
2023-02-15T06:08:38.723Z,114.43
2023-02-15T06:11:06.280Z,108.10
2023-02-15T06:13:37.893Z,97.25
2023-02-15T06:16:05.977Z,101.63
2023-02-15T06:18:33.082Z,79.53
2023-02-15T06:20:59.882Z,108.85
2023-02-15T06:23:26.781Z,102.03
2023-02-15T06:25:53.583Z,96.57
2023-02-15T06:28:20.407Z,106.22
2023-02-15T06:30:47.802Z,103.80
2023-02-15T06:33:14.634Z,112.82
2023-02-15T06:35:41.614Z,106.57
2023-02-15T06:38:08.375Z,94.65
2023-02-15T06:40:35.164Z,105.15
2023-02-15T06:43:01.954Z,95.82
2023-02-15T06:45:28.885Z,101.25
2023-02-15T06:47:55.682Z,91.97
2023-02-15T06:50:22.470Z,99.00
2023-02-15T06:52:49.248Z,109.65
2023-02-15T06:55:16.168Z,100.90
2023-02-15T06:57:42.926Z,103.82
2023-02-15T07:00:10.549Z,119.78
2023-02-15T07:02:37.371Z,110.88
2023-02-15T07:05:06.098Z,120.97
2023-02-15T07:07:33.181Z,106.38
2023-02-15T07:09:59.994Z,128.80
2023-02-15T07:12:48.197Z,134.20
2023-02-15T07:15:17.733Z,142.52
2023-02-15T07:17:45.246Z,134.18
2023-02-15T07:20:18.210Z,145.52
2023-02-15T07:22:45.369Z,137.82
2023-02-15T07:25:13.456Z,145.82
2023-02-15T07:27:41.018Z,138.18
2023-02-15T07:30:10.655Z,165.98
2023-02-15T07:32:37.852Z,133.07
2023-02-15T07:35:04.830Z,137.40
2023-02-15T07:37:31.681Z,145.82
2023-02-15T07:39:58.404Z,132.40
2023-02-15T07:42:25.273Z,151.15
2023-02-15T07:44:53.576Z,160.45
2023-02-15T07:47:20.411Z,155.88
2023-02-15T07:49:47.217Z,148.20
2023-02-15T07:52:13.928Z,147.73
2023-02-15T07:54:40.751Z,150.45
2023-02-15T07:57:07.470Z,162.30
2023-02-15T07:59:34.216Z,150.18
2023-02-15T08:02:00.996Z,174.70
2023-02-15T08:04:27.739Z,160.98
2023-02-15T08:06:55.492Z,140.65
2023-02-15T08:09:22.983Z,169.05
2023-02-15T08:11:50.002Z,159.60
2023-02-15T08:14:17.970Z,164.65
2023-02-15T08:16:53.377Z,170.90
2023-02-15T08:19:25.688Z,170.90
2023-02-15T08:22:00.041Z,167.15
2023-02-15T08:24:30.333Z,152.23
2023-02-15T08:26:57.812Z,177.93
2023-02-15T08:29:27.642Z,186.52
2023-02-15T08:31:59.747Z,159.75
2023-02-15T08:34:26.760Z,166.13
2023-02-15T08:36:53.831Z,182.25
2023-02-15T08:39:21.323Z,160.63
2023-02-15T08:41:49.245Z,179.63
2023-02-15T08:44:18.262Z,173.85
2023-02-15T08:46:46.582Z,176.50
2023-02-15T08:49:19.676Z,162.75
2023-02-15T08:51:47.138Z,180.77
2023-02-15T08:54:16.876Z,166.73
2023-02-15T08:56:45.039Z,159.05
2023-02-15T08:59:23.238Z,150.02
2023-02-15T09:01:52.605Z,170.88
2023-02-15T09:04:20.773Z,167.75
2023-02-15T09:06:49.577Z,146.82
2023-02-15T09:09:17.687Z,153.68
2023-02-15T09:11:47.564Z,153.35
2023-02-15T09:14:21.102Z,154.20
2023-02-15T09:16:50.327Z,163.65
2023-02-15T09:19:19.221Z,159.18
2023-02-15T09:21:46.661Z,151.57
2023-02-15T09:24:15.743Z,158.30
2023-02-15T09:26:45.491Z,136.68
2023-02-15T09:29:13.126Z,153.15
2023-02-15T09:31:49.752Z,149.65
2023-02-15T09:34:19.265Z,149.93
2023-02-15T09:36:47.872Z,147.23
2023-02-15T09:39:17.557Z,143.48
2023-02-15T09:41:54.632Z,184.35
2023-02-15T09:44:58.786Z,139.68
2023-02-15T09:47:59.160Z,153.32
2023-02-15T09:50:43.939Z,160.57
2023-02-15T09:53:28.856Z,151.30
2023-02-15T09:56:04.753Z,144.45
2023-02-15T09:58:40.457Z,158.73
2023-02-15T10:01:22.814Z,139.93
2023-02-15T10:04:05.034Z,165.93
2023-02-15T10:06:49.661Z,138.93
2023-02-15T10:09:35.635Z,148.18
2023-02-15T10:12:39.798Z,154.00
2023-02-15T10:15:12.758Z,150.63
2023-02-15T10:18:04.334Z,166.65
2023-02-15T10:21:03.911Z,156.50
2023-02-15T10:23:53.229Z,139.68
2023-02-15T10:26:28.346Z,139.75
2023-02-15T10:29:18.335Z,128.32
2023-02-15T10:31:53.175Z,131.45
2023-02-15T10:34:38.300Z,149.80
2023-02-15T10:37:39.422Z,133.75
2023-02-15T10:40:26.030Z,134.32
2023-02-15T10:43:10.118Z,153.80
2023-02-15T10:45:44.498Z,131.52
2023-02-15T10:48:35.672Z,134.93
2023-02-15T10:51:06.150Z,135.27
2023-02-15T10:53:32.955Z,121.63
2023-02-15T10:56:20.698Z,123.38
2023-02-15T10:59:02.833Z,126.85
2023-02-15T11:01:54.772Z,128.38
2023-02-15T11:04:46.557Z,114.40
2023-02-15T11:07:40.464Z,119.28
2023-02-15T11:10:25.873Z,122.38
2023-02-15T11:12:53.982Z,113.05
2023-02-15T11:15:45.578Z,113.47
2023-02-15T11:18:31.667Z,120.72
2023-02-15T11:21:04.507Z,112.93
2023-02-15T11:23:34.981Z,116.85
2023-02-15T11:26:13.037Z,122.10
2023-02-15T11:28:48.213Z,113.50
2023-02-15T11:31:21.524Z,110.40
2023-02-15T11:34:01.335Z,119.10
2023-02-15T11:36:39.458Z,121.38
2023-02-15T11:39:16.672Z,130.65
2023-02-15T11:41:52.945Z,107.97
2023-02-15T11:44:28.669Z,116.50
2023-02-15T11:46:55.467Z,131.95
2023-02-15T11:49:38.259Z,110.03
2023-02-15T11:52:15.037Z,121.97
2023-02-15T11:54:45.241Z,116.50
2023-02-15T11:57:39.898Z,121.25
2023-02-15T12:00:25.388Z,108.97
2023-02-15T12:02:55.839Z,118.88
2023-02-15T12:05:25.844Z,110.10
2023-02-15T12:08:01.756Z,111.25
2023-02-15T12:10:37.507Z,105.60
2023-02-15T12:13:14.778Z,114.10
2023-02-15T12:15:50.927Z,113.05
2023-02-15T12:18:40.918Z,108.65
2023-02-15T12:21:14.546Z,116.97
2023-02-15T12:23:57.133Z,109.70
2023-02-15T12:26:36.470Z,105.10
2023-02-15T12:29:14.108Z,102.10
2023-02-15T12:31:44.727Z,111.45
2023-02-15T12:34:29.630Z,106.30
2023-02-15T12:37:03.147Z,105.77
2023-02-15T12:39:32.822Z,89.82
2023-02-15T12:42:06.650Z,100.00
2023-02-15T12:44:36.771Z,100.32
2023-02-15T12:47:17.100Z,93.40
2023-02-15T12:49:48.206Z,103.80
2023-02-15T12:52:21.274Z,98.25
2023-02-15T12:54:48.312Z,104.47
2023-02-15T12:57:29.924Z,94.60
2023-02-15T13:00:00.140Z,99.18
2023-02-15T13:02:41.976Z,96.57
2023-02-15T13:05:28.373Z,90.93
2023-02-15T13:07:59.548Z,97.43
2023-02-15T13:10:36.198Z,90.40
2023-02-15T13:13:09.934Z,90.47
2023-02-15T13:15:47.607Z,93.47
2023-02-15T13:18:30.309Z,99.80
2023-02-15T13:20:57.745Z,103.18
2023-02-15T13:23:29.940Z,86.80
2023-02-15T13:26:03.637Z,93.70
2023-02-15T13:28:41.993Z,87.65
2023-02-15T13:31:19.888Z,103.18
2023-02-15T13:33:52.003Z,94.95
2023-02-15T13:36:24.491Z,104.28
2023-02-15T13:39:28.525Z,99.63
2023-02-15T13:42:10.243Z,98.45
2023-02-15T13:45:06.914Z,103.05
2023-02-15T13:47:39.369Z,108.63
2023-02-15T13:50:21.024Z,112.07
2023-02-15T13:53:10.135Z,115.43
2023-02-15T13:55:44.955Z,114.13
2023-02-15T13:58:31.791Z,116.47
2023-02-15T14:01:16.639Z,113.72
2023-02-15T14:04:22.354Z,107.18
2023-02-15T14:07:18.790Z,96.50
2023-02-15T14:09:54.617Z,103.78
2023-02-15T14:12:30.375Z,100.18
2023-02-15T14:15:07.756Z,97.75
2023-02-15T14:17:49.665Z,105.85
2023-02-15T14:20:42.360Z,107.75
2023-02-15T14:23:37.215Z,94.05
2023-02-15T14:26:22.008Z,92.93
2023-02-15T14:29:45.401Z,91.63
2023-02-15T14:32:40.456Z,95.97
2023-02-15T14:35:16.321Z,92.78
2023-02-15T14:37:58.418Z,104.13
2023-02-15T14:41:02.098Z,93.72
2023-02-15T14:43:49.949Z,88.85
2023-02-15T14:46:43.980Z,92.80
2023-02-15T14:49:17.648Z,90.68
2023-02-15T14:51:44.684Z,92.00
2023-02-15T14:54:35.350Z,77.80
2023-02-15T14:57:02.152Z,91.68
2023-02-15T15:00:00.671Z,91.90
2023-02-15T15:02:40.906Z,86.78
2023-02-15T15:05:18.852Z,86.07
2023-02-15T15:07:47.930Z,96.18
2023-02-15T15:10:17.760Z,108.25
2023-02-15T15:12:50.635Z,77.45
2023-02-15T15:15:30.721Z,96.25
2023-02-15T15:18:02.516Z,90.05
2023-02-15T15:20:49.585Z,91.07
2023-02-15T15:23:18.894Z,89.53
2023-02-15T15:25:52.970Z,101.60
2023-02-15T15:28:35.398Z,94.97
2023-02-15T15:31:23.996Z,89.18
2023-02-15T15:34:12.685Z,86.32
2023-02-15T15:36:45.275Z,92.25
2023-02-15T15:39:30.815Z,87.55
2023-02-15T15:44:49.434Z,92.18
2023-02-15T15:47:40.425Z,79.93
2023-02-15T15:50:16.498Z,107.38
2023-02-15T15:52:54.256Z,85.40
2023-02-15T15:55:24.210Z,89.30
2023-02-15T15:57:54.331Z,85.55
2023-02-15T16:00:31.990Z,102.25
2023-02-15T16:02:58.965Z,95.50
2023-02-15T16:05:26.100Z,95.57
2023-02-15T16:07:52.980Z,99.15
2023-02-15T16:10:29.146Z,103.70
2023-02-15T16:12:56.520Z,95.55
2023-02-15T16:15:36.079Z,95.60
2023-02-15T16:18:03.364Z,101.45
2023-02-15T16:20:36.985Z,99.25
2023-02-15T16:23:28.892Z,98.68
2023-02-15T16:26:37.045Z,104.20
2023-02-15T16:29:18.758Z,102.00
2023-02-15T16:32:01.342Z,98.15
2023-02-15T16:34:29.112Z,103.32
2023-02-15T16:37:15.271Z,120.10
2023-02-15T16:39:43.340Z,85.85
2023-02-15T16:42:14.340Z,88.90
2023-02-15T16:44:41.940Z,101.65
2023-02-15T16:47:27.388Z,96.75
2023-02-15T16:49:57.267Z,101.57
2023-02-15T16:52:26.610Z,84.35
2023-02-15T16:54:57.503Z,96.18
2023-02-15T16:57:36.768Z,90.90
2023-02-15T17:00:18.455Z,84.22
2023-02-15T17:02:56.816Z,93.40
2023-02-15T17:05:24.219Z,96.95
2023-02-15T17:08:04.481Z,90.72
2023-02-15T17:10:42.969Z,107.05
2023-02-15T17:13:14.705Z,98.78
2023-02-15T17:16:03.575Z,94.05
2023-02-15T17:18:31.822Z,105.13
2023-02-15T17:21:02.378Z,99.20
2023-02-15T17:23:32.050Z,93.05
2023-02-15T17:26:01.463Z,99.20
2023-02-15T17:28:33.401Z,95.43
2023-02-15T17:31:00.649Z,100.72
2023-02-15T17:33:39.960Z,86.25
2023-02-15T17:36:20.303Z,102.78
2023-02-15T17:39:23.382Z,98.97
2023-02-15T17:41:53.826Z,102.55
2023-02-15T17:44:20.730Z,110.95
2023-02-15T17:46:47.502Z,106.47
2023-02-15T17:52:57.800Z,96.78
2023-02-15T17:55:41.333Z,110.20
2023-02-15T17:58:19.524Z,101.55
2023-02-15T18:03:53.739Z,101.25
2023-02-15T18:06:39.171Z,103.97
2023-02-15T18:09:49.591Z,125.07
2023-02-15T18:12:30.901Z,102.55
2023-02-15T18:14:58.709Z,89.00
2023-02-15T18:17:42.436Z,90.47
2023-02-15T18:20:24.295Z,114.63
2023-02-15T18:22:52.237Z,107.70
2023-02-15T18:25:21.617Z,129.38
2023-02-15T18:27:48.405Z,118.43
2023-02-15T18:30:18.274Z,131.60
2023-02-15T18:32:46.424Z,137.45
2023-02-15T18:35:18.884Z,122.35
2023-02-15T18:37:46.402Z,144.20
2023-02-15T18:40:17.768Z,100.70
2023-02-15T18:42:55.092Z,86.50
2023-02-15T18:45:24.984Z,120.40
2023-02-15T18:47:51.932Z,107.85
2023-02-15T18:50:21.001Z,86.40
2023-02-15T18:52:51.396Z,96.97
2023-02-15T18:55:21.863Z,97.10
2023-02-15T18:57:50.563Z,118.75
2023-02-15T19:00:21.047Z,96.65
2023-02-15T19:02:48.537Z,101.57
2023-02-15T19:05:17.787Z,91.00
2023-02-15T19:07:51.280Z,89.82
2023-02-15T19:10:24.403Z,100.10
2023-02-15T19:12:52.932Z,132.98
2023-02-15T19:15:25.240Z,109.22
2023-02-15T19:17:53.060Z,115.15
2023-02-15T19:20:21.140Z,81.50
2023-02-15T19:22:50.208Z,87.05
2023-02-15T19:25:28.605Z,78.63
2023-02-15T19:27:56.383Z,97.82
2023-02-15T19:30:29.805Z,111.20
2023-02-15T19:32:58.048Z,107.18
2023-02-15T19:35:37.401Z,123.50
2023-02-15T19:38:08.519Z,108.90
2023-02-15T19:40:36.545Z,104.30
2023-02-15T19:43:03.799Z,141.45
2023-02-15T19:45:32.803Z,164.15
2023-02-15T19:48:02.769Z,112.93
2023-02-15T19:50:31.644Z,110.43
2023-02-15T19:52:58.706Z,121.28
2023-02-15T19:55:28.464Z,96.47
2023-02-15T19:57:57.121Z,113.95
2023-02-15T20:01:17.087Z,115.35
2023-02-15T20:03:44.314Z,101.90
2023-02-15T20:06:15.107Z,135.27
2023-02-15T20:08:43.188Z,139.98
2023-02-15T20:11:14.107Z,122.35
2023-02-15T20:13:40.964Z,100.30
2023-02-15T20:16:09.748Z,111.07
2023-02-15T20:18:36.787Z,117.30
2023-02-15T20:21:05.070Z,100.28
2023-02-15T20:23:36.023Z,107.10
2023-02-15T20:26:18.229Z,107.57
2023-02-15T20:28:46.408Z,136.70
2023-02-15T20:31:16.807Z,115.72
2023-02-15T20:33:43.702Z,107.63
2023-02-15T20:36:15.080Z,126.43
2023-02-15T20:38:42.363Z,80.13
2023-02-15T20:41:33.684Z,91.88
2023-02-15T20:44:00.687Z,85.70
2023-02-15T20:46:27.617Z,90.45
2023-02-15T20:48:54.512Z,95.18
2023-02-15T20:51:22.224Z,90.65
2023-02-15T20:53:49.240Z,91.38
2023-02-15T20:56:24.509Z,135.25
2023-02-15T20:58:52.443Z,107.55
2023-02-15T21:01:31.663Z,100.45
2023-02-15T21:03:58.527Z,116.72
2023-02-15T21:06:25.528Z,104.05
2023-02-15T21:08:52.842Z,85.90
2023-02-15T21:11:22.748Z,116.55
2023-02-15T21:13:51.290Z,111.50
2023-02-15T21:16:22.347Z,99.25
2023-02-15T21:18:49.626Z,70.20
2023-02-15T21:21:36.971Z,88.28
2023-02-15T21:24:05.952Z,93.72
2023-02-15T21:26:39.226Z,97.20
2023-02-15T21:29:09.868Z,100.50
2023-02-15T21:31:38.658Z,88.15
2023-02-15T21:34:06.835Z,110.32
2023-02-15T21:36:37.293Z,160.65
2023-02-15T21:39:04.506Z,110.43
2023-02-15T21:41:50.630Z,101.07
2023-02-15T21:44:39.904Z,120.78
2023-02-15T21:47:46.240Z,107.15
2023-02-15T21:50:34.613Z,89.30
2023-02-15T21:53:03.112Z,191.65
2023-02-15T21:55:32.189Z,153.15
2023-02-15T21:58:00.058Z,135.73
2023-02-15T22:00:29.304Z,122.28
2023-02-15T22:02:58.660Z,124.43
2023-02-15T22:05:28.522Z,114.07
2023-02-15T22:07:57.309Z,122.20
2023-02-15T22:10:30.495Z,92.40
2023-02-15T22:12:59.493Z,115.65
2023-02-15T22:15:29.205Z,99.25
2023-02-15T22:17:56.156Z,136.93
2023-02-15T22:20:24.791Z,128.45
2023-02-15T22:22:53.635Z,99.53
2023-02-15T22:25:23.863Z,112.10
2023-02-15T22:27:52.996Z,139.45
2023-02-15T22:30:33.324Z,117.63
2023-02-15T22:33:00.885Z,132.25
2023-02-15T22:35:33.934Z,127.95
2023-02-15T22:38:01.351Z,109.63
2023-02-15T22:40:37.206Z,86.38
2023-02-15T22:43:05.895Z,101.20
2023-02-15T22:45:35.628Z,142.80
2023-02-15T22:48:02.890Z,124.28
2023-02-15T22:50:32.251Z,95.75
2023-02-15T22:53:03.461Z,94.80
2023-02-15T22:55:36.071Z,84.63
2023-02-15T22:58:03.599Z,101.70
2023-02-15T23:00:35.388Z,91.18
2023-02-15T23:03:02.288Z,113.40
2023-02-15T23:05:31.537Z,78.65
2023-02-15T23:07:58.387Z,94.53
2023-02-15T23:10:26.944Z,84.60
2023-02-15T23:13:14.331Z,93.43
2023-02-15T23:15:42.479Z,80.82
2023-02-15T23:18:21.111Z,98.57
2023-02-15T23:20:55.798Z,83.85
2023-02-15T23:23:38.524Z,104.75
2023-02-15T23:26:15.282Z,88.03
2023-02-15T23:28:42.393Z,100.40
2023-02-15T23:31:19.984Z,92.13
2023-02-15T23:33:47.861Z,99.93
2023-02-15T23:36:38.921Z,111.65
2023-02-15T23:39:35.652Z,98.82
2023-02-15T23:42:10.229Z,93.00
2023-02-15T23:44:37.485Z,77.15
2023-02-15T23:47:05.103Z,109.55
2023-02-15T23:49:31.946Z,90.55
2023-02-15T23:51:59.022Z,111.97
2023-02-15T23:54:26.747Z,75.60
2023-02-15T23:56:58.252Z,102.43
2023-02-15T23:59:27.957Z,115.38
